Baskc, Croatia
Current Conditions -  °F | °C
As of 4:00 PM on Tuesday 27 Jan 2015 (Local Time) from LDRI Reporting Station
Few Clouds Few Clouds  
Wind Chill: 34°   Ceiling: Unl
Heat Index: 39°   Visibility: 6mi
Dew Point: 27°   Wind: 7mph
Humidity: 61%   Direction: NA
Pressure: 29.91"   Gusts: NA
Location:  44.98°N, 14.75°E
Report Text: LDRI 271500Z VRB06KT 9999 FEW040 04/M03 Q1013
Loading
Personal Weather Stations






























Interactive Weather Map New forecast layout! Learn more

10-Day Weather Forecast

Advertisements
Track Severe Weather on mobile